Aviation Digital Data Service (ADDS)

Output produced by METARs form (1715 UTC 24 February 2017)
found at http://aviationweather.gov/adds/metars/
 
KBDL 241354Z 2414/2518 19007KT P6SM FEW110 SCT200 BKN250 
     FM241800 19009KT P6SM SCT140 
     FM250700 18005KT 5SM BR BKN015 
     FM251300 17005KT P6SM VCSH BKN020 
     FM251500 17007KT P6SM VCSH BKN040